sensor_id;sensor_type;location;lat;lon;timestamp;P1;durP1;ratioP1;P2;durP2;ratioP2
66628;SDS011;53532;53.084;6.352;2022-07-10T00:01:34;13.82;;;2.50;;
66628;SDS011;53532;53.084;6.352;2022-07-10T00:04:05;11.77;;;2.25;;
66628;SDS011;53532;53.084;6.352;2022-07-10T00:06:31;14.85;;;2.30;;
66628;SDS011;53532;53.084;6.352;2022-07-10T00:08:58;10.40;;;2.20;;
66628;SDS011;53532;53.084;6.352;2022-07-10T00:11:24;10.80;;;1.92;;
66628;SDS011;53532;53.084;6.352;2022-07-10T00:13:50;12.57;;;2.35;;
66628;SDS011;53532;53.084;6.352;2022-07-10T00:16:16;10.65;;;2.20;;
66628;SDS011;53532;53.084;6.352;2022-07-10T00:18:42;9.82;;;2.20;;
66628;SDS011;53532;53.084;6.352;2022-07-10T00:21:10;11.38;;;2.10;;
66628;SDS011;53532;53.084;6.352;2022-07-10T00:23:36;12.68;;;2.60;;
66628;SDS011;53532;53.084;6.352;2022-07-10T00:26:02;13.20;;;2.30;;
66628;SDS011;53532;53.084;6.352;2022-07-10T00:28:28;12.57;;;2.58;;
66628;SDS011;53532;53.084;6.352;2022-07-10T00:30:55;8.55;;;2.25;;
66628;SDS011;53532;53.084;6.352;2022-07-10T00:33:21;9.15;;;2.15;;
66628;SDS011;53532;53.084;6.352;2022-07-10T00:35:47;12.52;;;2.20;;
66628;SDS011;53532;53.084;6.352;2022-07-10T00:38:15;13.15;;;2.22;;
66628;SDS011;53532;53.084;6.352;2022-07-10T00:40:41;10.73;;;2.53;;
66628;SDS011;53532;53.084;6.352;2022-07-10T00:43:08;11.27;;;2.75;;
66628;SDS011;53532;53.084;6.352;2022-07-10T00:45:34;13.00;;;2.55;;
66628;SDS011;53532;53.084;6.352;2022-07-10T00:48:00;14.02;;;2.75;;
66628;SDS011;53532;53.084;6.352;2022-07-10T00:50:27;11.63;;;2.50;;
66628;SDS011;53532;53.084;6.352;2022-07-10T00:52:54;14.82;;;2.67;;
66628;SDS011;53532;53.084;6.352;2022-07-10T00:55:21;8.88;;;2.38;;
66628;SDS011;53532;53.084;6.352;2022-07-10T00:57:48;11.60;;;2.40;;
66628;SDS011;53532;53.084;6.352;2022-07-10T01:00:14;12.27;;;2.10;;
66628;SDS011;53532;53.084;6.352;2022-07-10T01:02:41;12.60;;;2.75;;
66628;SDS011;53532;53.084;6.352;2022-07-10T01:05:08;14.38;;;2.60;;
66628;SDS011;53532;53.084;6.352;2022-07-10T01:07:34;14.18;;;2.63;;
66628;SDS011;53532;53.084;6.352;2022-07-10T01:10:01;10.75;;;2.35;;
66628;SDS011;53532;53.084;6.352;2022-07-10T01:12:29;14.98;;;3.00;;
66628;SDS011;53532;53.084;6.352;2022-07-10T01:14:55;13.32;;;2.78;;
66628;SDS011;53532;53.084;6.352;2022-07-10T01:17:21;13.55;;;2.70;;
66628;SDS011;53532;53.084;6.352;2022-07-10T01:19:48;11.82;;;2.60;;
66628;SDS011;53532;53.084;6.352;2022-07-10T01:22:16;11.68;;;2.58;;
66628;SDS011;53532;53.084;6.352;2022-07-10T01:24:42;10.10;;;2.33;;
66628;SDS011;53532;53.084;6.352;2022-07-10T01:27:08;11.38;;;2.10;;
66628;SDS011;53532;53.084;6.352;2022-07-10T01:29:34;13.82;;;2.70;;
66628;SDS011;53532;53.084;6.352;2022-07-10T01:32:01;12.63;;;2.70;;
66628;SDS011;53532;53.084;6.352;2022-07-10T01:34:28;12.57;;;2.92;;
66628;SDS011;53532;53.084;6.352;2022-07-10T01:36:54;10.98;;;2.30;;
66628;SDS011;53532;53.084;6.352;2022-07-10T01:39:21;12.20;;;2.17;;
66628;SDS011;53532;53.084;6.352;2022-07-10T01:41:48;13.05;;;2.63;;
66628;SDS011;53532;53.084;6.352;2022-07-10T01:44:14;11.98;;;2.47;;
66628;SDS011;53532;53.084;6.352;2022-07-10T01:46:44;14.07;;;2.53;;
66628;SDS011;53532;53.084;6.352;2022-07-10T01:49:10;10.30;;;2.03;;
66628;SDS011;53532;53.084;6.352;2022-07-10T01:51:36;10.50;;;1.90;;
66628;SDS011;53532;53.084;6.352;2022-07-10T01:54:03;16.42;;;2.63;;
66628;SDS011;53532;53.084;6.352;2022-07-10T01:56:30;8.55;;;2.03;;
66628;SDS011;53532;53.084;6.352;2022-07-10T01:58:57;10.00;;;1.95;;
66628;SDS011;53532;53.084;6.352;2022-07-10T02:01:25;8.35;;;2.03;;
66628;SDS011;53532;53.084;6.352;2022-07-10T02:03:52;9.20;;;2.13;;
66628;SDS011;53532;53.084;6.352;2022-07-10T02:06:37;10.95;;;1.95;;
66628;SDS011;53532;53.084;6.352;2022-07-10T02:09:03;13.52;;;1.80;;
66628;SDS011;53532;53.084;6.352;2022-07-10T02:11:31;10.88;;;1.80;;
66628;SDS011;53532;53.084;6.352;2022-07-10T02:13:57;8.30;;;1.65;;
66628;SDS011;53532;53.084;6.352;2022-07-10T02:16:23;13.20;;;2.15;;
66628;SDS011;53532;53.084;6.352;2022-07-10T02:18:49;12.27;;;2.30;;
66628;SDS011;53532;53.084;6.352;2022-07-10T02:21:15;9.02;;;1.95;;
66628;SDS011;53532;53.084;6.352;2022-07-10T02:23:42;10.77;;;2.30;;
66628;SDS011;53532;53.084;6.352;2022-07-10T02:26:08;11.07;;;1.92;;
66628;SDS011;53532;53.084;6.352;2022-07-10T02:28:35;11.27;;;2.03;;
66628;SDS011;53532;53.084;6.352;2022-07-10T02:31:01;13.65;;;2.20;;
66628;SDS011;53532;53.084;6.352;2022-07-10T02:33:28;7.00;;;1.73;;
66628;SDS011;53532;53.084;6.352;2022-07-10T02:35:54;9.02;;;1.75;;
66628;SDS011;53532;53.084;6.352;2022-07-10T02:38:20;10.48;;;1.70;;
66628;SDS011;53532;53.084;6.352;2022-07-10T02:40:47;14.07;;;2.47;;
66628;SDS011;53532;53.084;6.352;2022-07-10T02:43:13;10.75;;;2.05;;
66628;SDS011;53532;53.084;6.352;2022-07-10T02:45:40;14.55;;;2.10;;
66628;SDS011;53532;53.084;6.352;2022-07-10T02:48:06;10.63;;;1.90;;
66628;SDS011;53532;53.084;6.352;2022-07-10T02:50:33;8.73;;;1.80;;
66628;SDS011;53532;53.084;6.352;2022-07-10T02:52:59;10.75;;;2.03;;
66628;SDS011;53532;53.084;6.352;2022-07-10T02:55:25;10.50;;;2.05;;
66628;SDS011;53532;53.084;6.352;2022-07-10T02:57:52;12.80;;;1.88;;
66628;SDS011;53532;53.084;6.352;2022-07-10T03:00:18;10.50;;;1.85;;
66628;SDS011;53532;53.084;6.352;2022-07-10T03:02:46;13.23;;;2.15;;
66628;SDS011;53532;53.084;6.352;2022-07-10T03:05:12;10.40;;;2.15;;
66628;SDS011;53532;53.084;6.352;2022-07-10T03:07:38;9.00;;;1.92;;
66628;SDS011;53532;53.084;6.352;2022-07-10T03:10:04;6.57;;;1.80;;
66628;SDS011;53532;53.084;6.352;2022-07-10T03:12:31;11.68;;;2.28;;
66628;SDS011;53532;53.084;6.352;2022-07-10T03:14:57;10.20;;;2.00;;
66628;SDS011;53532;53.084;6.352;2022-07-10T03:17:24;12.45;;;2.10;;
66628;SDS011;53532;53.084;6.352;2022-07-10T03:19:52;11.40;;;2.40;;
66628;SDS011;53532;53.084;6.352;2022-07-10T03:22:18;9.77;;;1.80;;
66628;SDS011;53532;53.084;6.352;2022-07-10T03:24:44;14.57;;;2.40;;
66628;SDS011;53532;53.084;6.352;2022-07-10T03:27:11;8.20;;;1.85;;
66628;SDS011;53532;53.084;6.352;2022-07-10T03:29:38;8.00;;;2.17;;
66628;SDS011;53532;53.084;6.352;2022-07-10T03:32:05;11.18;;;1.90;;
66628;SDS011;53532;53.084;6.352;2022-07-10T03:34:32;13.80;;;2.50;;
66628;SDS011;53532;53.084;6.352;2022-07-10T03:37:00;8.30;;;1.90;;
66628;SDS011;53532;53.084;6.352;2022-07-10T03:39:26;13.25;;;2.00;;
66628;SDS011;53532;53.084;6.352;2022-07-10T03:41:52;8.45;;;2.10;;
66628;SDS011;53532;53.084;6.352;2022-07-10T03:44:18;10.60;;;2.15;;
66628;SDS011;53532;53.084;6.352;2022-07-10T03:46:45;11.57;;;2.25;;
66628;SDS011;53532;53.084;6.352;2022-07-10T03:49:11;8.15;;;2.08;;
66628;SDS011;53532;53.084;6.352;2022-07-10T03:51:37;13.30;;;2.30;;
66628;SDS011;53532;53.084;6.352;2022-07-10T03:54:05;11.10;;;2.75;;
66628;SDS011;53532;53.084;6.352;2022-07-10T03:56:31;10.40;;;2.00;;
66628;SDS011;53532;53.084;6.352;2022-07-10T03:59:15;11.02;;;2.28;;
66628;SDS011;53532;53.084;6.352;2022-07-10T04:01:42;10.77;;;2.25;;
66628;SDS011;53532;53.084;6.352;2022-07-10T04:04:08;11.70;;;2.30;;
66628;SDS011;53532;53.084;6.352;2022-07-10T04:06:34;11.43;;;2.45;;
66628;SDS011;53532;53.084;6.352;2022-07-10T04:09:05;12.75;;;2.40;;
66628;SDS011;53532;53.084;6.352;2022-07-10T04:11:31;11.10;;;2.30;;
66628;SDS011;53532;53.084;6.352;2022-07-10T04:13:57;12.93;;;2.13;;
66628;SDS011;53532;53.084;6.352;2022-07-10T04:16:23;9.98;;;2.28;;
66628;SDS011;53532;53.084;6.352;2022-07-10T04:18:49;13.85;;;2.50;;
66628;SDS011;53532;53.084;6.352;2022-07-10T04:21:15;13.02;;;2.53;;
66628;SDS011;53532;53.084;6.352;2022-07-10T04:23:42;9.75;;;2.20;;
66628;SDS011;53532;53.084;6.352;2022-07-10T04:26:09;12.18;;;2.22;;
66628;SDS011;53532;53.084;6.352;2022-07-10T04:28:35;13.02;;;2.70;;
66628;SDS011;53532;53.084;6.352;2022-07-10T04:31:01;14.98;;;3.00;;
66628;SDS011;53532;53.084;6.352;2022-07-10T04:33:28;12.63;;;2.78;;
66628;SDS011;53532;53.084;6.352;2022-07-10T04:35:54;10.70;;;2.60;;
66628;SDS011;53532;53.084;6.352;2022-07-10T04:38:20;18.75;;;2.90;;
66628;SDS011;53532;53.084;6.352;2022-07-10T04:40:46;17.42;;;3.60;;
66628;SDS011;53532;53.084;6.352;2022-07-10T04:43:14;11.40;;;2.97;;
66628;SDS011;53532;53.084;6.352;2022-07-10T04:45:40;20.70;;;3.55;;
66628;SDS011;53532;53.084;6.352;2022-07-10T04:48:06;14.00;;;3.03;;
66628;SDS011;53532;53.084;6.352;2022-07-10T04:50:32;15.30;;;3.30;;
66628;SDS011;53532;53.084;6.352;2022-07-10T04:52:58;14.32;;;3.22;;
66628;SDS011;53532;53.084;6.352;2022-07-10T04:55:25;14.95;;;3.03;;
66628;SDS011;53532;53.084;6.352;2022-07-10T04:57:52;15.13;;;2.92;;
66628;SDS011;53532;53.084;6.352;2022-07-10T05:00:19;15.57;;;3.13;;
66628;SDS011;53532;53.084;6.352;2022-07-10T05:02:46;11.32;;;2.92;;
66628;SDS011;53532;53.084;6.352;2022-07-10T05:05:12;15.45;;;3.38;;
66628;SDS011;53532;53.084;6.352;2022-07-10T05:07:39;11.65;;;3.38;;
66628;SDS011;53532;53.084;6.352;2022-07-10T05:10:05;13.13;;;3.33;;
66628;SDS011;53532;53.084;6.352;2022-07-10T05:12:31;16.10;;;3.70;;
66628;SDS011;53532;53.084;6.352;2022-07-10T05:14:57;13.90;;;3.00;;
66628;SDS011;53532;53.084;6.352;2022-07-10T05:17:26;17.17;;;3.22;;
66628;SDS011;53532;53.084;6.352;2022-07-10T05:19:53;18.02;;;3.25;;
66628;SDS011;53532;53.084;6.352;2022-07-10T05:22:20;14.07;;;3.03;;
66628;SDS011;53532;53.084;6.352;2022-07-10T05:24:48;14.15;;;2.85;;
66628;SDS011;53532;53.084;6.352;2022-07-10T05:27:14;15.57;;;2.70;;
66628;SDS011;53532;53.084;6.352;2022-07-10T05:29:45;16.75;;;3.10;;
66628;SDS011;53532;53.084;6.352;2022-07-10T05:32:11;14.10;;;2.80;;
66628;SDS011;53532;53.084;6.352;2022-07-10T05:34:39;14.98;;;3.15;;
66628;SDS011;53532;53.084;6.352;2022-07-10T05:37:05;11.02;;;2.63;;
66628;SDS011;53532;53.084;6.352;2022-07-10T05:39:32;15.27;;;3.10;;
66628;SDS011;53532;53.084;6.352;2022-07-10T05:41:58;15.77;;;3.15;;
66628;SDS011;53532;53.084;6.352;2022-07-10T05:44:24;11.27;;;2.53;;
66628;SDS011;53532;53.084;6.352;2022-07-10T05:46:50;11.75;;;2.97;;
66628;SDS011;53532;53.084;6.352;2022-07-10T05:49:17;16.60;;;2.80;;
66628;SDS011;53532;53.084;6.352;2022-07-10T05:51:44;10.48;;;2.70;;
66628;SDS011;53532;53.084;6.352;2022-07-10T05:54:10;12.40;;;2.75;;
66628;SDS011;53532;53.084;6.352;2022-07-10T05:56:36;11.15;;;3.25;;
66628;SDS011;53532;53.084;6.352;2022-07-10T05:59:03;15.73;;;2.80;;
66628;SDS011;53532;53.084;6.352;2022-07-10T06:01:29;14.85;;;3.15;;
66628;SDS011;53532;53.084;6.352;2022-07-10T06:03:56;18.13;;;3.00;;
66628;SDS011;53532;53.084;6.352;2022-07-10T06:06:22;12.85;;;2.78;;
66628;SDS011;53532;53.084;6.352;2022-07-10T06:08:50;13.10;;;3.03;;
66628;SDS011;53532;53.084;6.352;2022-07-10T06:11:16;12.55;;;2.90;;
66628;SDS011;53532;53.084;6.352;2022-07-10T06:13:42;12.50;;;2.88;;
66628;SDS011;53532;53.084;6.352;2022-07-10T06:16:08;14.40;;;3.17;;
66628;SDS011;53532;53.084;6.352;2022-07-10T06:18:34;11.65;;;2.38;;
66628;SDS011;53532;53.084;6.352;2022-07-10T06:21:00;11.63;;;2.63;;
66628;SDS011;53532;53.084;6.352;2022-07-10T06:23:27;9.52;;;2.65;;
66628;SDS011;53532;53.084;6.352;2022-07-10T06:25:54;12.13;;;2.70;;
66628;SDS011;53532;53.084;6.352;2022-07-10T06:28:20;11.75;;;2.60;;
66628;SDS011;53532;53.084;6.352;2022-07-10T06:30:46;13.95;;;2.80;;
66628;SDS011;53532;53.084;6.352;2022-07-10T06:33:13;9.55;;;2.65;;
66628;SDS011;53532;53.084;6.352;2022-07-10T06:35:39;10.75;;;2.72;;
66628;SDS011;53532;53.084;6.352;2022-07-10T06:38:05;11.35;;;3.10;;
66628;SDS011;53532;53.084;6.352;2022-07-10T06:40:31;11.23;;;2.83;;
66628;SDS011;53532;53.084;6.352;2022-07-10T06:43:02;11.70;;;2.83;;
66628;SDS011;53532;53.084;6.352;2022-07-10T06:45:29;8.98;;;2.40;;
66628;SDS011;53532;53.084;6.352;2022-07-10T06:47:55;14.77;;;2.80;;
66628;SDS011;53532;53.084;6.352;2022-07-10T06:50:22;12.38;;;2.90;;
66628;SDS011;53532;53.084;6.352;2022-07-10T06:52:48;12.60;;;3.05;;
66628;SDS011;53532;53.084;6.352;2022-07-10T06:55:14;12.10;;;3.00;;
66628;SDS011;53532;53.084;6.352;2022-07-10T06:57:41;11.63;;;2.60;;
66628;SDS011;53532;53.084;6.352;2022-07-10T07:00:09;10.93;;;2.90;;
66628;SDS011;53532;53.084;6.352;2022-07-10T07:02:35;9.23;;;2.88;;
66628;SDS011;53532;53.084;6.352;2022-07-10T07:05:02;10.88;;;2.97;;
66628;SDS011;53532;53.084;6.352;2022-07-10T07:07:28;12.50;;;2.97;;
66628;SDS011;53532;53.084;6.352;2022-07-10T07:09:54;16.58;;;3.10;;
66628;SDS011;53532;53.084;6.352;2022-07-10T07:12:20;12.50;;;3.10;;
66628;SDS011;53532;53.084;6.352;2022-07-10T07:14:46;16.38;;;3.05;;
66628;SDS011;53532;53.084;6.352;2022-07-10T07:17:14;12.82;;;2.58;;
66628;SDS011;53532;53.084;6.352;2022-07-10T07:19:46;8.27;;;2.28;;
66628;SDS011;53532;53.084;6.352;2022-07-10T07:22:31;8.90;;;1.90;;
66628;SDS011;53532;53.084;6.352;2022-07-10T07:25:17;11.02;;;2.40;;
66628;SDS011;53532;53.084;6.352;2022-07-10T07:27:43;10.40;;;2.55;;
66628;SDS011;53532;53.084;6.352;2022-07-10T07:30:10;9.63;;;2.17;;
66628;SDS011;53532;53.084;6.352;2022-07-10T07:32:38;10.23;;;2.03;;
66628;SDS011;53532;53.084;6.352;2022-07-10T07:35:05;12.50;;;2.20;;
66628;SDS011;53532;53.084;6.352;2022-07-10T07:37:35;11.77;;;2.30;;
66628;SDS011;53532;53.084;6.352;2022-07-10T07:40:02;8.18;;;2.20;;
66628;SDS011;53532;53.084;6.352;2022-07-10T07:42:28;11.43;;;2.65;;
66628;SDS011;53532;53.084;6.352;2022-07-10T07:44:54;10.88;;;2.20;;
66628;SDS011;53532;53.084;6.352;2022-07-10T07:47:20;7.65;;;1.90;;
66628;SDS011;53532;53.084;6.352;2022-07-10T07:49:48;10.38;;;2.10;;
66628;SDS011;53532;53.084;6.352;2022-07-10T07:52:14;9.75;;;2.20;;
66628;SDS011;53532;53.084;6.352;2022-07-10T07:54:40;8.32;;;2.20;;
66628;SDS011;53532;53.084;6.352;2022-07-10T07:57:06;13.80;;;2.58;;
66628;SDS011;53532;53.084;6.352;2022-07-10T07:59:32;7.30;;;1.80;;
66628;SDS011;53532;53.084;6.352;2022-07-10T08:01:59;10.88;;;2.35;;
66628;SDS011;53532;53.084;6.352;2022-07-10T08:04:26;8.60;;;2.33;;
66628;SDS011;53532;53.084;6.352;2022-07-10T08:06:53;13.35;;;2.60;;
66628;SDS011;53532;53.084;6.352;2022-07-10T08:09:19;10.27;;;2.33;;
66628;SDS011;53532;53.084;6.352;2022-07-10T08:11:46;13.52;;;2.75;;
66628;SDS011;53532;53.084;6.352;2022-07-10T08:14:12;9.52;;;2.38;;
66628;SDS011;53532;53.084;6.352;2022-07-10T08:16:39;10.25;;;2.40;;
66628;SDS011;53532;53.084;6.352;2022-07-10T08:19:05;10.32;;;2.50;;
66628;SDS011;53532;53.084;6.352;2022-07-10T08:21:31;13.38;;;2.95;;
66628;SDS011;53532;53.084;6.352;2022-07-10T08:24:00;9.70;;;3.42;;
66628;SDS011;53532;53.084;6.352;2022-07-10T08:26:26;14.40;;;3.10;;
66628;SDS011;53532;53.084;6.352;2022-07-10T08:28:52;9.27;;;2.80;;
66628;SDS011;53532;53.084;6.352;2022-07-10T08:31:18;12.57;;;3.00;;
66628;SDS011;53532;53.084;6.352;2022-07-10T08:33:45;11.93;;;3.67;;
66628;SDS011;53532;53.084;6.352;2022-07-10T08:36:11;12.55;;;3.40;;
66628;SDS011;53532;53.084;6.352;2022-07-10T08:38:37;13.38;;;3.60;;
66628;SDS011;53532;53.084;6.352;2022-07-10T08:41:05;14.95;;;3.55;;
66628;SDS011;53532;53.084;6.352;2022-07-10T08:43:32;11.63;;;3.17;;
66628;SDS011;53532;53.084;6.352;2022-07-10T08:45:58;12.68;;;3.30;;
66628;SDS011;53532;53.084;6.352;2022-07-10T08:48:24;12.23;;;3.33;;
66628;SDS011;53532;53.084;6.352;2022-07-10T08:50:51;13.10;;;3.85;;
66628;SDS011;53532;53.084;6.352;2022-07-10T08:53:21;12.63;;;3.85;;
66628;SDS011;53532;53.084;6.352;2022-07-10T08:55:49;13.57;;;3.67;;
66628;SDS011;53532;53.084;6.352;2022-07-10T08:58:17;12.27;;;3.30;;
66628;SDS011;53532;53.084;6.352;2022-07-10T09:00:44;15.00;;;3.90;;
66628;SDS011;53532;53.084;6.352;2022-07-10T09:03:10;15.77;;;4.20;;
66628;SDS011;53532;53.084;6.352;2022-07-10T09:05:36;19.30;;;3.70;;
66628;SDS011;53532;53.084;6.352;2022-07-10T09:08:03;13.02;;;3.80;;
66628;SDS011;53532;53.084;6.352;2022-07-10T09:10:29;15.98;;;3.90;;
66628;SDS011;53532;53.084;6.352;2022-07-10T09:12:56;11.68;;;3.70;;
66628;SDS011;53532;53.084;6.352;2022-07-10T09:15:24;13.05;;;3.90;;
66628;SDS011;53532;53.084;6.352;2022-07-10T09:17:54;16.17;;;4.20;;
66628;SDS011;53532;53.084;6.352;2022-07-10T09:20:28;14.75;;;4.20;;
66628;SDS011;53532;53.084;6.352;2022-07-10T09:22:55;12.65;;;4.30;;
66628;SDS011;53532;53.084;6.352;2022-07-10T09:25:23;14.52;;;3.92;;
66628;SDS011;53532;53.084;6.352;2022-07-10T09:27:50;15.80;;;4.50;;
66628;SDS011;53532;53.084;6.352;2022-07-10T09:30:32;12.68;;;3.90;;
66628;SDS011;53532;53.084;6.352;2022-07-10T09:35:53;12.30;;;4.70;;
66628;SDS011;53532;53.084;6.352;2022-07-10T09:38:51;15.85;;;4.60;;
66628;SDS011;53532;53.084;6.352;2022-07-10T09:41:19;15.25;;;4.40;;
66628;SDS011;53532;53.084;6.352;2022-07-10T09:43:46;16.90;;;4.40;;
66628;SDS011;53532;53.084;6.352;2022-07-10T09:46:14;12.45;;;4.30;;
66628;SDS011;53532;53.084;6.352;2022-07-10T09:48:41;17.73;;;4.82;;
66628;SDS011;53532;53.084;6.352;2022-07-10T09:51:07;11.43;;;4.53;;
66628;SDS011;53532;53.084;6.352;2022-07-10T09:53:37;13.85;;;4.97;;
66628;SDS011;53532;53.084;6.352;2022-07-10T09:56:06;12.15;;;4.20;;
66628;SDS011;53532;53.084;6.352;2022-07-10T09:58:33;13.80;;;4.75;;
66628;SDS011;53532;53.084;6.352;2022-07-10T10:01:03;16.65;;;4.50;;
66628;SDS011;53532;53.084;6.352;2022-07-10T10:03:33;13.40;;;4.70;;
66628;SDS011;53532;53.084;6.352;2022-07-10T10:06:01;14.68;;;5.20;;
66628;SDS011;53532;53.084;6.352;2022-07-10T10:08:28;17.08;;;5.10;;
66628;SDS011;53532;53.084;6.352;2022-07-10T10:10:56;16.75;;;4.90;;
66628;SDS011;53532;53.084;6.352;2022-07-10T10:13:23;13.32;;;4.25;;
66628;SDS011;53532;53.084;6.352;2022-07-10T10:15:50;14.20;;;4.93;;
66628;SDS011;53532;53.084;6.352;2022-07-10T10:18:17;16.63;;;5.20;;
66628;SDS011;53532;53.084;6.352;2022-07-10T10:20:46;19.85;;;5.63;;
66628;SDS011;53532;53.084;6.352;2022-07-10T10:23:13;18.27;;;5.40;;
66628;SDS011;53532;53.084;6.352;2022-07-10T10:25:42;14.20;;;5.25;;
66628;SDS011;53532;53.084;6.352;2022-07-10T10:28:09;14.75;;;4.70;;
66628;SDS011;53532;53.084;6.352;2022-07-10T10:30:36;17.17;;;6.03;;
66628;SDS011;53532;53.084;6.352;2022-07-10T10:33:04;16.38;;;5.80;;
66628;SDS011;53532;53.084;6.352;2022-07-10T10:35:45;15.40;;;5.70;;
66628;SDS011;53532;53.084;6.352;2022-07-10T10:40:41;16.58;;;5.18;;
66628;SDS011;53532;53.084;6.352;2022-07-10T10:43:20;15.80;;;4.95;;
66628;SDS011;53532;53.084;6.352;2022-07-10T10:45:47;12.18;;;4.90;;
66628;SDS011;53532;53.084;6.352;2022-07-10T10:48:14;16.50;;;5.53;;
66628;SDS011;53532;53.084;6.352;2022-07-10T10:50:41;15.23;;;5.32;;
66628;SDS011;53532;53.084;6.352;2022-07-10T10:53:16;18.75;;;4.90;;
66628;SDS011;53532;53.084;6.352;2022-07-10T10:58:27;17.10;;;5.05;;
66628;SDS011;53532;53.084;6.352;2022-07-10T11:01:00;12.60;;;4.70;;
66628;SDS011;53532;53.084;6.352;2022-07-10T11:03:28;19.42;;;4.90;;
66628;SDS011;53532;53.084;6.352;2022-07-10T11:05:55;12.02;;;3.97;;
66628;SDS011;53532;53.084;6.352;2022-07-10T11:08:39;14.73;;;4.28;;
66628;SDS011;53532;53.084;6.352;2022-07-10T11:13:50;14.65;;;3.70;;
66628;SDS011;53532;53.084;6.352;2022-07-10T11:18:51;10.43;;;4.38;;
66628;SDS011;53532;53.084;6.352;2022-07-10T11:21:21;13.95;;;4.38;;
66628;SDS011;53532;53.084;6.352;2022-07-10T11:23:54;14.30;;;4.47;;
66628;SDS011;53532;53.084;6.352;2022-07-10T11:26:29;14.55;;;4.45;;
66628;SDS011;53532;53.084;6.352;2022-07-10T11:29:01;15.98;;;4.53;;
66628;SDS011;53532;53.084;6.352;2022-07-10T11:31:30;13.65;;;4.40;;
66628;SDS011;53532;53.084;6.352;2022-07-10T11:33:59;11.27;;;4.25;;
66628;SDS011;53532;53.084;6.352;2022-07-10T11:36:26;14.18;;;4.80;;
66628;SDS011;53532;53.084;6.352;2022-07-10T11:38:59;23.80;;;5.38;;
66628;SDS011;53532;53.084;6.352;2022-07-10T11:41:25;16.58;;;4.75;;
66628;SDS011;53532;53.084;6.352;2022-07-10T11:43:52;13.65;;;4.65;;
66628;SDS011;53532;53.084;6.352;2022-07-10T11:46:19;13.68;;;4.78;;
66628;SDS011;53532;53.084;6.352;2022-07-10T11:48:46;12.02;;;5.32;;
66628;SDS011;53532;53.084;6.352;2022-07-10T11:51:18;13.75;;;4.97;;
66628;SDS011;53532;53.084;6.352;2022-07-10T11:54:02;15.77;;;4.90;;
66628;SDS011;53532;53.084;6.352;2022-07-10T11:56:29;15.98;;;5.13;;
66628;SDS011;53532;53.084;6.352;2022-07-10T11:58:58;13.13;;;5.70;;
66628;SDS011;53532;53.084;6.352;2022-07-10T12:01:25;17.98;;;6.03;;
66628;SDS011;53532;53.084;6.352;2022-07-10T12:03:57;13.85;;;5.22;;
66628;SDS011;53532;53.084;6.352;2022-07-10T12:06:24;16.23;;;5.50;;
66628;SDS011;53532;53.084;6.352;2022-07-10T12:08:50;15.40;;;5.07;;
66628;SDS011;53532;53.084;6.352;2022-07-10T12:11:19;13.82;;;5.00;;
66628;SDS011;53532;53.084;6.352;2022-07-10T12:13:45;12.77;;;5.10;;
66628;SDS011;53532;53.084;6.352;2022-07-10T12:16:12;18.50;;;5.13;;
66628;SDS011;53532;53.084;6.352;2022-07-10T12:18:38;14.32;;;4.72;;
66628;SDS011;53532;53.084;6.352;2022-07-10T12:21:06;13.02;;;4.72;;
66628;SDS011;53532;53.084;6.352;2022-07-10T12:23:33;13.25;;;5.00;;
66628;SDS011;53532;53.084;6.352;2022-07-10T12:26:07;13.52;;;4.20;;
66628;SDS011;53532;53.084;6.352;2022-07-10T12:28:48;11.27;;;4.25;;
66628;SDS011;53532;53.084;6.352;2022-07-10T12:31:19;18.20;;;4.47;;
66628;SDS011;53532;53.084;6.352;2022-07-10T12:33:49;13.65;;;4.50;;
66628;SDS011;53532;53.084;6.352;2022-07-10T12:36:16;15.73;;;4.40;;
66628;SDS011;53532;53.084;6.352;2022-07-10T12:38:42;12.07;;;4.43;;
66628;SDS011;53532;53.084;6.352;2022-07-10T12:41:09;14.38;;;4.60;;
66628;SDS011;53532;53.084;6.352;2022-07-10T12:43:35;12.70;;;4.60;;
66628;SDS011;53532;53.084;6.352;2022-07-10T12:46:10;11.77;;;4.10;;
66628;SDS011;53532;53.084;6.352;2022-07-10T12:48:36;13.82;;;4.78;;
66628;SDS011;53532;53.084;6.352;2022-07-10T12:53:44;12.80;;;4.32;;
66628;SDS011;53532;53.084;6.352;2022-07-10T12:56:25;19.50;;;4.35;;
66628;SDS011;53532;53.084;6.352;2022-07-10T12:58:51;15.27;;;4.38;;
66628;SDS011;53532;53.084;6.352;2022-07-10T13:01:19;14.98;;;4.40;;
66628;SDS011;53532;53.084;6.352;2022-07-10T13:03:46;10.55;;;4.40;;
66628;SDS011;53532;53.084;6.352;2022-07-10T13:06:24;11.77;;;4.38;;
66628;SDS011;53532;53.084;6.352;2022-07-10T13:08:51;15.80;;;4.75;;
66628;SDS011;53532;53.084;6.352;2022-07-10T13:11:17;18.15;;;4.72;;
66628;SDS011;53532;53.084;6.352;2022-07-10T13:13:43;13.52;;;4.97;;
66628;SDS011;53532;53.084;6.352;2022-07-10T13:16:13;12.57;;;4.38;;
66628;SDS011;53532;53.084;6.352;2022-07-10T13:18:41;12.07;;;4.45;;
66628;SDS011;53532;53.084;6.352;2022-07-10T13:21:07;14.27;;;4.38;;
66628;SDS011;53532;53.084;6.352;2022-07-10T13:23:34;14.85;;;4.63;;
66628;SDS011;53532;53.084;6.352;2022-07-10T13:26:00;16.80;;;4.97;;
66628;SDS011;53532;53.084;6.352;2022-07-10T13:28:28;13.27;;;4.38;;
66628;SDS011;53532;53.084;6.352;2022-07-10T13:30:54;15.00;;;4.78;;
66628;SDS011;53532;53.084;6.352;2022-07-10T13:33:21;12.77;;;4.95;;
66628;SDS011;53532;53.084;6.352;2022-07-10T13:35:50;16.35;;;5.13;;
66628;SDS011;53532;53.084;6.352;2022-07-10T13:38:17;15.63;;;5.45;;
66628;SDS011;53532;53.084;6.352;2022-07-10T13:40:44;14.88;;;4.80;;
66628;SDS011;53532;53.084;6.352;2022-07-10T13:43:12;12.18;;;4.68;;
66628;SDS011;53532;53.084;6.352;2022-07-10T13:45:38;16.40;;;5.28;;
66628;SDS011;53532;53.084;6.352;2022-07-10T13:48:08;15.82;;;5.03;;
66628;SDS011;53532;53.084;6.352;2022-07-10T13:50:35;15.70;;;4.80;;
66628;SDS011;53532;53.084;6.352;2022-07-10T13:53:03;14.55;;;4.43;;
66628;SDS011;53532;53.084;6.352;2022-07-10T13:55:30;12.10;;;4.63;;
66628;SDS011;53532;53.084;6.352;2022-07-10T13:57:56;12.23;;;4.40;;
66628;SDS011;53532;53.084;6.352;2022-07-10T14:00:23;18.48;;;5.40;;
66628;SDS011;53532;53.084;6.352;2022-07-10T14:02:49;12.85;;;4.40;;
66628;SDS011;53532;53.084;6.352;2022-07-10T14:05:15;11.48;;;3.60;;
66628;SDS011;53532;53.084;6.352;2022-07-10T14:07:42;9.40;;;3.15;;
66628;SDS011;53532;53.084;6.352;2022-07-10T14:10:09;10.82;;;4.03;;
66628;SDS011;53532;53.084;6.352;2022-07-10T14:12:36;11.68;;;4.10;;
66628;SDS011;53532;53.084;6.352;2022-07-10T14:15:02;9.75;;;3.75;;
66628;SDS011;53532;53.084;6.352;2022-07-10T14:17:29;13.82;;;3.85;;
66628;SDS011;53532;53.084;6.352;2022-07-10T14:19:55;12.13;;;3.80;;
66628;SDS011;53532;53.084;6.352;2022-07-10T14:22:21;10.18;;;3.50;;
66628;SDS011;53532;53.084;6.352;2022-07-10T14:24:48;10.90;;;3.40;;
66628;SDS011;53532;53.084;6.352;2022-07-10T14:27:15;9.93;;;3.38;;
66628;SDS011;53532;53.084;6.352;2022-07-10T14:29:42;12.15;;;3.30;;
66628;SDS011;53532;53.084;6.352;2022-07-10T14:32:08;9.50;;;3.17;;
66628;SDS011;53532;53.084;6.352;2022-07-10T14:34:34;10.13;;;3.15;;
66628;SDS011;53532;53.084;6.352;2022-07-10T14:37:00;10.63;;;3.38;;
66628;SDS011;53532;53.084;6.352;2022-07-10T14:39:27;10.23;;;2.90;;
66628;SDS011;53532;53.084;6.352;2022-07-10T14:41:53;8.77;;;3.00;;
66628;SDS011;53532;53.084;6.352;2022-07-10T14:44:20;8.95;;;3.38;;
66628;SDS011;53532;53.084;6.352;2022-07-10T14:46:46;7.97;;;2.90;;
66628;SDS011;53532;53.084;6.352;2022-07-10T14:49:13;11.75;;;3.40;;
66628;SDS011;53532;53.084;6.352;2022-07-10T14:51:39;10.50;;;3.58;;
66628;SDS011;53532;53.084;6.352;2022-07-10T14:54:05;11.77;;;3.40;;